createdAt,value
2024-01-05T00:01:18.807Z,78.96
2024-01-05T00:03:57.139Z,79.66
2024-01-05T00:06:39.570Z,79.80
2024-01-05T00:09:18.361Z,79.99
2024-01-05T00:11:59.591Z,79.84
2024-01-05T00:14:39.189Z,80.27
2024-01-05T00:17:16.554Z,80.41
2024-01-05T00:19:54.204Z,80.15
2024-01-05T00:22:32.229Z,80.47
2024-01-05T00:25:11.575Z,80.23
2024-01-05T00:27:49.543Z,80.57
2024-01-05T00:30:21.875Z,80.96
2024-01-05T00:32:56.597Z,80.18
2024-01-05T00:35:35.500Z,79.27
2024-01-05T00:38:13.100Z,79.47
2024-01-05T00:40:50.420Z,79.18
2024-01-05T00:43:28.385Z,79.30
2024-01-05T00:46:06.466Z,78.65
2024-01-05T00:48:43.168Z,78.12
2024-01-05T00:51:20.925Z,78.19
2024-01-05T00:53:59.340Z,78.61
2024-01-05T00:56:36.860Z,78.77
2024-01-05T00:59:16.228Z,79.43
2024-01-05T01:01:54.956Z,79.48
2024-01-05T01:04:33.277Z,79.92
2024-01-05T01:07:11.570Z,79.83
2024-01-05T01:09:41.959Z,80.35
2024-01-05T01:12:17.084Z,80.66
2024-01-05T01:14:55.302Z,80.89
2024-01-05T01:17:33.369Z,81.00
2024-01-05T01:20:12.442Z,81.57
2024-01-05T01:22:50.074Z,82.26
2024-01-05T01:25:27.922Z,81.81
2024-01-05T01:28:06.383Z,81.78
2024-01-05T01:30:43.757Z,81.86
2024-01-05T01:33:21.525Z,81.56
2024-01-05T01:35:58.368Z,81.68
2024-01-05T01:38:36.532Z,80.56
2024-01-05T01:41:14.517Z,80.64
2024-01-05T01:43:54.776Z,80.60
2024-01-05T01:46:35.119Z,80.44
2024-01-05T01:49:13.918Z,80.61
2024-01-05T01:51:51.404Z,79.33
2024-01-05T01:54:22.879Z,78.89
2024-01-05T01:56:59.238Z,79.29
2024-01-05T01:59:37.875Z,78.70
2024-01-05T02:02:16.511Z,78.44
2024-01-05T02:04:56.132Z,78.65
2024-01-05T02:07:33.790Z,77.44
2024-01-05T02:10:12.227Z,77.81
2024-01-05T02:12:49.965Z,77.64
2024-01-05T02:15:27.499Z,77.51
2024-01-05T02:18:13.531Z,77.15
2024-01-05T02:20:51.641Z,75.90
2024-01-05T02:23:32.346Z,75.50
2024-01-05T02:26:11.270Z,76.06
2024-01-05T02:28:48.475Z,76.04
2024-01-05T02:31:26.396Z,75.63
2024-01-05T02:34:04.598Z,75.50
2024-01-05T02:36:42.033Z,75.12
2024-01-05T02:39:14.618Z,74.91
2024-01-05T02:41:52.902Z,75.36
2024-01-05T02:44:23.908Z,75.06
2024-01-05T02:46:59.594Z,74.66
2024-01-05T02:49:37.744Z,74.30
2024-01-05T02:52:15.249Z,74.74
2024-01-05T02:54:53.242Z,73.77
2024-01-05T02:57:30.826Z,73.67
2024-01-05T03:00:10.655Z,73.50
2024-01-05T03:02:48.117Z,72.63
2024-01-05T03:05:25.693Z,72.84
2024-01-05T03:08:04.411Z,72.73
2024-01-05T03:10:43.049Z,72.94
2024-01-05T03:13:20.626Z,72.93
2024-01-05T03:15:58.678Z,72.20
2024-01-05T03:18:36.888Z,72.46
2024-01-05T03:21:08.691Z,72.43
2024-01-05T03:23:41.037Z,72.11
2024-01-05T03:26:20.029Z,72.13
2024-01-05T03:28:57.576Z,71.71
2024-01-05T03:31:35.113Z,71.44
2024-01-05T03:34:13.609Z,71.75
2024-01-05T03:36:50.687Z,71.85
2024-01-05T03:39:28.339Z,72.18
2024-01-05T03:42:06.033Z,71.90
2024-01-05T03:44:43.710Z,71.76
2024-01-05T03:47:21.558Z,71.26
2024-01-05T03:49:59.453Z,69.67
2024-01-05T03:52:36.909Z,69.42
2024-01-05T03:55:15.479Z,69.77
2024-01-05T03:58:16.542Z,69.67
2024-01-05T04:00:56.205Z,69.01
2024-01-05T04:03:34.284Z,69.24
2024-01-05T04:06:20.156Z,68.71
2024-01-05T04:08:58.323Z,67.89
2024-01-05T04:11:36.814Z,65.94
2024-01-05T04:14:14.865Z,66.49
2024-01-05T04:16:52.157Z,66.81
2024-01-05T04:19:31.859Z,66.61
2024-01-05T04:22:10.324Z,65.97
2024-01-05T04:24:47.734Z,66.12
2024-01-05T04:27:24.787Z,66.44
2024-01-05T04:30:02.329Z,67.01
2024-01-05T04:32:40.101Z,66.91
2024-01-05T04:35:18.094Z,67.78
2024-01-05T04:37:55.835Z,67.59
2024-01-05T04:40:26.655Z,67.11
2024-01-05T04:43:03.783Z,67.06
2024-01-05T04:45:43.101Z,66.95
2024-01-05T04:48:20.975Z,67.30
2024-01-05T04:50:57.791Z,67.52
2024-01-05T04:53:35.041Z,67.89
2024-01-05T04:56:13.641Z,68.11
2024-01-05T04:58:52.945Z,67.86
2024-01-05T05:01:30.105Z,68.30
2024-01-05T05:04:08.162Z,68.37
2024-01-05T05:06:45.907Z,68.79
2024-01-05T05:09:23.181Z,68.72
2024-01-05T05:12:01.046Z,68.95
2024-01-05T05:14:38.837Z,69.49
2024-01-05T05:17:18.769Z,69.10
2024-01-05T05:19:49.379Z,69.34
2024-01-05T05:22:25.051Z,69.01
2024-01-05T05:25:00.493Z,68.93
2024-01-05T05:27:37.742Z,69.32
2024-01-05T05:30:17.044Z,69.19
2024-01-05T05:32:54.870Z,68.78
2024-01-05T05:35:32.316Z,68.58
2024-01-05T05:38:12.405Z,68.48
2024-01-05T05:40:50.247Z,68.25
2024-01-05T05:43:27.487Z,68.25
2024-01-05T05:46:05.096Z,68.42
2024-01-05T05:48:42.816Z,68.69
2024-01-05T05:51:19.973Z,68.74
2024-01-05T05:53:57.871Z,68.69
2024-01-05T05:56:28.871Z,68.81
2024-01-05T05:59:05.377Z,67.90
2024-01-05T06:01:42.946Z,68.25
2024-01-05T06:04:21.303Z,68.38
2024-01-05T06:06:58.915Z,68.09
2024-01-05T06:09:36.326Z,67.81
2024-01-05T06:12:14.326Z,68.25
2024-01-05T06:14:51.410Z,68.21
2024-01-05T06:17:28.098Z,67.51
2024-01-05T06:20:06.489Z,66.62
2024-01-05T06:22:43.609Z,66.68
2024-01-05T06:25:20.976Z,66.72
2024-01-05T06:27:58.456Z,66.46
2024-01-05T06:30:29.705Z,66.08
2024-01-05T06:33:08.565Z,65.93
2024-01-05T06:35:45.856Z,65.72
2024-01-05T06:38:23.639Z,65.48
2024-01-05T06:41:00.701Z,64.95
2024-01-05T06:43:37.772Z,65.79
2024-01-05T06:46:15.422Z,65.47
2024-01-05T06:48:51.980Z,65.33
2024-01-05T06:51:31.845Z,65.73
2024-01-05T06:54:10.262Z,64.77
2024-01-05T06:56:48.470Z,64.85
2024-01-05T06:59:28.197Z,64.08
2024-01-05T07:02:05.469Z,64.86
2024-01-05T07:04:37.702Z,65.49
2024-01-05T07:07:09.464Z,65.61
2024-01-05T07:09:47.488Z,65.22
2024-01-05T07:12:25.244Z,65.12
2024-01-05T07:15:02.736Z,65.13
2024-01-05T07:17:39.970Z,65.48
2024-01-05T07:20:18.024Z,65.67
2024-01-05T07:22:55.732Z,65.83
2024-01-05T07:25:34.547Z,66.20
2024-01-05T07:28:16.300Z,66.11
2024-01-05T07:30:53.619Z,66.57
2024-01-05T07:33:32.186Z,66.33
2024-01-05T07:36:13.007Z,66.20
2024-01-05T07:38:52.420Z,65.53
2024-01-05T07:41:30.377Z,65.77
2024-01-05T07:44:08.619Z,65.68
2024-01-05T07:46:48.524Z,65.97
2024-01-05T07:49:27.397Z,65.14
2024-01-05T07:52:04.943Z,65.48
2024-01-05T07:54:42.193Z,65.33
2024-01-05T07:57:13.611Z,65.30
2024-01-05T07:59:49.282Z,66.08
2024-01-05T08:02:26.654Z,65.75
2024-01-05T08:05:04.139Z,64.50
2024-01-05T08:07:42.559Z,64.93
2024-01-05T08:10:20.529Z,65.24
2024-01-05T08:12:57.475Z,66.05
2024-01-05T08:15:35.830Z,65.28
2024-01-05T08:18:13.308Z,65.61
2024-01-05T08:20:50.797Z,65.56
2024-01-05T08:23:28.206Z,66.37
2024-01-05T08:26:06.406Z,65.88
2024-01-05T08:28:44.096Z,65.48
2024-01-05T08:31:21.734Z,65.06
2024-01-05T08:33:52.433Z,65.26
2024-01-05T08:36:30.293Z,65.39
2024-01-05T08:39:08.508Z,65.62
2024-01-05T08:41:47.871Z,65.33
2024-01-05T08:44:26.275Z,65.98
2024-01-05T08:47:04.416Z,66.16
2024-01-05T08:49:42.342Z,65.70
2024-01-05T08:52:20.493Z,65.89
2024-01-05T08:54:58.190Z,66.07
2024-01-05T08:57:36.320Z,66.54
2024-01-05T09:00:16.635Z,66.12
2024-01-05T09:02:54.598Z,66.36
2024-01-05T09:05:32.430Z,67.13
2024-01-05T09:08:11.211Z,66.82
2024-01-05T09:10:48.623Z,67.10
2024-01-05T09:13:27.058Z,67.20
2024-01-05T09:16:04.656Z,67.22
2024-01-05T09:18:36.316Z,67.47
2024-01-05T09:21:13.683Z,67.63
2024-01-05T09:23:51.347Z,67.37
2024-01-05T09:26:30.056Z,68.44
2024-01-05T09:29:08.385Z,68.28
2024-01-05T09:31:52.943Z,68.31
2024-01-05T09:34:30.263Z,68.15
2024-01-05T09:37:07.642Z,67.76
2024-01-05T09:39:45.882Z,67.18
2024-01-05T09:42:24.512Z,66.00
2024-01-05T09:45:04.132Z,65.53
2024-01-05T09:47:42.662Z,65.03
2024-01-05T09:50:21.547Z,64.11
2024-01-05T09:53:00.496Z,64.46
2024-01-05T09:55:38.099Z,64.85
2024-01-05T09:58:17.191Z,65.45
2024-01-05T10:01:01.597Z,64.71
2024-01-05T10:03:39.600Z,64.87
2024-01-05T10:06:20.156Z,64.29
2024-01-05T10:09:01.439Z,63.77
2024-01-05T10:11:46.591Z,63.60
2024-01-05T10:14:28.681Z,63.66
2024-01-05T10:17:14.607Z,64.04
2024-01-05T10:19:51.326Z,63.09
2024-01-05T10:22:30.469Z,62.34
2024-01-05T10:25:20.302Z,62.25
2024-01-05T10:27:54.236Z,62.24
2024-01-05T10:30:32.508Z,61.48
2024-01-05T10:33:12.981Z,60.46
2024-01-05T10:35:50.220Z,60.02
2024-01-05T10:38:29.008Z,60.23
2024-01-05T10:41:11.401Z,60.03
2024-01-05T10:43:49.787Z,60.32
2024-01-05T10:46:29.951Z,60.25
2024-01-05T10:49:08.174Z,60.85
2024-01-05T10:51:46.538Z,60.79
2024-01-05T10:54:24.320Z,60.37
2024-01-05T10:57:02.378Z,60.63
2024-01-05T10:59:39.680Z,60.80
2024-01-05T11:02:48.869Z,59.97
2024-01-05T11:05:30.047Z,59.48
2024-01-05T11:08:03.287Z,58.93
2024-01-05T11:11:04.424Z,58.99
2024-01-05T11:14:14.142Z,59.53
2024-01-05T11:17:27.702Z,59.18
2024-01-05T11:20:25.765Z,59.18
2024-01-05T11:23:05.302Z,58.37
2024-01-05T11:25:42.918Z,59.05
2024-01-05T11:28:49.286Z,58.15
2024-01-05T11:31:53.761Z,57.85
2024-01-05T11:34:39.096Z,57.58
2024-01-05T11:37:28.961Z,58.04
2024-01-05T11:40:07.789Z,57.96
2024-01-05T11:42:38.771Z,57.61
2024-01-05T11:45:36.334Z,56.88
2024-01-05T11:48:38.485Z,56.53
2024-01-05T11:51:16.108Z,56.32
2024-01-05T11:53:53.603Z,55.98
2024-01-05T11:56:31.188Z,55.49
2024-01-05T11:59:10.424Z,56.10
2024-01-05T12:01:54.476Z,57.09
2024-01-05T12:04:48.214Z,56.86
2024-01-05T12:07:31.405Z,56.11
2024-01-05T12:10:09.158Z,55.42
2024-01-05T12:12:39.906Z,55.33
2024-01-05T12:15:21.569Z,54.68
2024-01-05T12:18:19.677Z,54.45
2024-01-05T12:21:14.428Z,54.57
2024-01-05T12:24:17.612Z,55.17
2024-01-05T12:26:59.056Z,55.22
2024-01-05T12:29:36.302Z,54.58
2024-01-05T12:32:14.498Z,54.58
2024-01-05T12:34:53.111Z,55.29
2024-01-05T12:37:30.156Z,54.56
2024-01-05T12:40:24.855Z,55.11
2024-01-05T12:43:02.662Z,54.42
2024-01-05T12:45:39.595Z,54.23
2024-01-05T12:48:19.820Z,54.30
2024-01-05T12:51:10.645Z,54.93
2024-01-05T12:54:05.106Z,54.93
2024-01-05T12:56:39.327Z,55.00
2024-01-05T12:59:26.615Z,54.06
2024-01-05T13:02:10.460Z,54.72
2024-01-05T13:04:42.120Z,55.21
2024-01-05T13:07:18.057Z,55.28
2024-01-05T13:09:56.265Z,54.66
2024-01-05T13:12:33.766Z,54.66
2024-01-05T13:15:12.622Z,54.47
2024-01-05T13:17:56.140Z,55.21
2024-01-05T13:20:34.449Z,54.98
2024-01-05T13:23:12.216Z,54.29
2024-01-05T13:25:49.437Z,54.79
2024-01-05T13:28:27.858Z,55.17
2024-01-05T13:31:06.609Z,55.85
2024-01-05T13:33:44.747Z,55.94
2024-01-05T13:36:21.852Z,55.51
2024-01-05T13:38:59.535Z,55.04
2024-01-05T13:41:37.641Z,55.28
2024-01-05T13:44:15.223Z,55.17
2024-01-05T13:46:53.365Z,55.06
2024-01-05T13:49:27.436Z,55.19
2024-01-05T13:52:01.093Z,55.63
2024-01-05T13:54:39.332Z,55.09
2024-01-05T13:57:17.674Z,55.59
2024-01-05T13:59:55.249Z,55.31
2024-01-05T14:02:32.716Z,55.63
2024-01-05T14:05:11.750Z,55.48
2024-01-05T14:07:48.980Z,55.53
2024-01-05T14:10:26.939Z,55.00
2024-01-05T14:13:03.788Z,55.05
2024-01-05T14:15:41.099Z,55.41
2024-01-05T14:18:17.777Z,55.40
2024-01-05T14:20:55.230Z,55.78
2024-01-05T14:23:34.361Z,56.04
2024-01-05T14:26:19.606Z,55.76
2024-01-05T14:28:58.912Z,55.37
2024-01-05T14:31:39.404Z,55.24
2024-01-05T14:34:10.979Z,54.47
2024-01-05T14:36:42.964Z,54.14
2024-01-05T14:39:22.607Z,54.34
2024-01-05T14:42:00.228Z,54.43
2024-01-05T14:44:39.309Z,54.48
2024-01-05T14:47:18.098Z,54.04
2024-01-05T14:49:55.876Z,53.82
2024-01-05T14:52:34.183Z,53.27
2024-01-05T14:55:13.785Z,54.14
2024-01-05T14:57:51.994Z,53.68
2024-01-05T15:00:30.492Z,53.91
2024-01-05T15:03:10.469Z,53.83
2024-01-05T15:05:48.924Z,53.70
2024-01-05T15:08:26.938Z,54.45
2024-01-05T15:11:07.392Z,54.65
2024-01-05T15:13:47.054Z,54.08
2024-01-05T15:16:25.599Z,54.31
2024-01-05T15:19:06.896Z,54.13
2024-01-05T15:21:56.560Z,55.15
2024-01-05T15:24:34.843Z,54.72
2024-01-05T15:27:14.424Z,54.55
2024-01-05T15:29:52.801Z,54.50
2024-01-05T15:32:31.380Z,54.32
2024-01-05T15:35:09.503Z,54.51
2024-01-05T15:37:47.379Z,54.95
2024-01-05T15:40:31.311Z,55.15
2024-01-05T15:43:11.896Z,55.50
2024-01-05T15:45:50.575Z,55.23
2024-01-05T15:48:30.272Z,55.20
2024-01-05T15:51:20.901Z,55.41
2024-01-05T15:54:01.179Z,55.17
2024-01-05T15:56:40.895Z,55.13
2024-01-05T15:59:19.800Z,55.47
2024-01-05T16:01:58.098Z,55.98
2024-01-05T16:04:36.821Z,55.49
2024-01-05T16:07:15.547Z,55.37
2024-01-05T16:09:53.323Z,55.43
2024-01-05T16:12:31.670Z,55.14
2024-01-05T16:15:14.069Z,55.51
2024-01-05T16:17:54.088Z,55.88
2024-01-05T16:20:32.854Z,55.22
2024-01-05T16:23:17.488Z,55.48
2024-01-05T16:25:56.388Z,55.10
2024-01-05T16:28:34.874Z,55.38
2024-01-05T16:31:17.450Z,55.22
2024-01-05T16:33:56.644Z,55.16
2024-01-05T16:36:34.893Z,55.64
2024-01-05T16:39:13.595Z,55.81
2024-01-05T16:41:52.522Z,55.86
2024-01-05T16:44:31.587Z,56.02
2024-01-05T16:47:11.659Z,56.33
2024-01-05T16:49:50.796Z,56.52
2024-01-05T16:52:29.963Z,56.33
2024-01-05T16:55:08.565Z,56.84
2024-01-05T16:57:48.646Z,56.84
2024-01-05T17:00:27.618Z,57.40
2024-01-05T17:03:07.200Z,57.78
2024-01-05T17:05:47.763Z,57.42
2024-01-05T17:08:26.068Z,57.78
2024-01-05T17:11:04.452Z,57.52
2024-01-05T17:13:42.686Z,57.65
2024-01-05T17:16:22.141Z,57.52
2024-01-05T17:19:00.800Z,57.63
2024-01-05T17:21:46.384Z,57.53
2024-01-05T17:24:24.810Z,57.35
2024-01-05T17:27:03.615Z,57.45
2024-01-05T17:29:42.895Z,57.81
2024-01-05T17:32:22.253Z,57.75
2024-01-05T17:34:53.323Z,57.57
2024-01-05T17:37:26.844Z,57.95
2024-01-05T17:40:07.381Z,57.63
2024-01-05T17:42:46.426Z,57.35
2024-01-05T17:45:24.679Z,57.74
2024-01-05T17:48:04.137Z,57.78
2024-01-05T17:50:42.285Z,58.03
2024-01-05T17:53:20.988Z,57.98
2024-01-05T17:55:59.076Z,58.14
2024-01-05T17:58:37.313Z,57.34
2024-01-05T18:01:16.131Z,57.61
2024-01-05T18:03:53.974Z,57.70
2024-01-05T18:06:32.028Z,58.27
2024-01-05T18:09:10.800Z,58.10
2024-01-05T18:11:49.328Z,58.24
2024-01-05T18:14:27.582Z,57.90
2024-01-05T18:17:05.174Z,56.74
2024-01-05T18:19:43.768Z,56.87
2024-01-05T18:22:22.125Z,56.70
2024-01-05T18:25:00.728Z,57.07
2024-01-05T18:27:33.824Z,56.55
2024-01-05T18:30:12.087Z,56.41
2024-01-05T18:32:49.488Z,57.11
2024-01-05T18:35:30.694Z,56.38
2024-01-05T18:38:13.242Z,56.32
2024-01-05T18:40:48.574Z,55.76
2024-01-05T18:43:27.359Z,55.89
2024-01-05T18:46:06.630Z,56.73
2024-01-05T18:48:48.511Z,57.00
2024-01-05T18:51:27.330Z,57.61
2024-01-05T18:54:07.798Z,57.89
2024-01-05T18:56:47.534Z,58.77
2024-01-05T18:59:27.105Z,58.88
2024-01-05T19:02:06.679Z,60.37
2024-01-05T19:04:38.351Z,61.84
2024-01-05T19:07:19.401Z,63.63
2024-01-05T19:09:58.600Z,65.89
2024-01-05T19:12:37.978Z,66.94
2024-01-05T19:15:17.169Z,67.61
2024-01-05T19:17:56.932Z,68.74
2024-01-05T19:20:35.919Z,69.10
2024-01-05T19:23:14.824Z,69.10
2024-01-05T19:25:54.512Z,69.50
2024-01-05T19:28:33.965Z,70.00
2024-01-05T19:31:13.342Z,70.18
2024-01-05T19:33:51.800Z,69.58
2024-01-05T19:36:30.682Z,69.73
2024-01-05T19:39:11.442Z,69.38
2024-01-05T19:41:51.667Z,69.06
2024-01-05T19:44:30.680Z,68.78
2024-01-05T19:47:11.784Z,68.87
2024-01-05T19:49:51.304Z,68.95
2024-01-05T19:52:40.050Z,69.24
2024-01-05T19:55:31.060Z,68.78
2024-01-05T19:58:10.760Z,68.58
2024-01-05T20:00:50.806Z,68.49
2024-01-05T20:03:30.841Z,68.44
2024-01-05T20:06:10.961Z,68.25
2024-01-05T20:08:50.949Z,68.11
2024-01-05T20:11:30.833Z,68.33
2024-01-05T20:14:11.147Z,67.88
2024-01-05T20:16:52.402Z,68.06
2024-01-05T20:19:31.507Z,68.53
2024-01-05T20:22:11.454Z,68.37
2024-01-05T20:24:51.140Z,68.27
2024-01-05T20:27:43.964Z,68.25
2024-01-05T20:30:15.559Z,68.23
2024-01-05T20:32:53.716Z,67.97
2024-01-05T20:35:32.148Z,67.46
2024-01-05T20:38:12.004Z,67.37
2024-01-05T20:40:51.782Z,67.39
2024-01-05T20:43:30.988Z,67.48
2024-01-05T20:46:10.694Z,67.74
2024-01-05T20:48:49.539Z,67.98
2024-01-05T20:51:29.817Z,67.92
2024-01-05T20:54:09.708Z,68.53
2024-01-05T20:56:51.020Z,69.00
2024-01-05T20:59:30.587Z,69.34
2024-01-05T21:02:11.036Z,70.17
2024-01-05T21:04:52.842Z,70.65
2024-01-05T21:07:26.461Z,71.37
2024-01-05T21:10:08.732Z,71.65
2024-01-05T21:12:49.096Z,72.39
2024-01-05T21:15:30.403Z,72.69
2024-01-05T21:18:15.835Z,73.36
2024-01-05T21:20:53.604Z,73.12
2024-01-05T21:23:33.405Z,73.36
2024-01-05T21:26:14.594Z,74.03
2024-01-05T21:28:53.777Z,74.29
2024-01-05T21:31:32.777Z,74.79
2024-01-05T21:34:13.750Z,74.50
2024-01-05T21:36:53.015Z,74.63
2024-01-05T21:39:32.982Z,74.56
2024-01-05T21:42:07.153Z,74.93
2024-01-05T21:44:46.357Z,75.51
2024-01-05T21:47:25.670Z,75.74
2024-01-05T21:50:04.102Z,75.19
2024-01-05T21:52:35.311Z,75.50
2024-01-05T21:55:15.670Z,75.79
2024-01-05T21:58:02.457Z,76.21
2024-01-05T22:00:41.387Z,76.85
2024-01-05T22:03:21.260Z,76.45
2024-01-05T22:06:00.649Z,76.40
2024-01-05T22:08:39.013Z,76.53
2024-01-05T22:11:17.766Z,76.10
2024-01-05T22:13:56.550Z,76.17
2024-01-05T22:16:35.545Z,76.03
2024-01-05T22:19:14.433Z,76.20
2024-01-05T22:21:53.740Z,76.26
2024-01-05T22:24:33.030Z,76.70
2024-01-05T22:27:18.487Z,76.87
2024-01-05T22:29:57.927Z,77.86
2024-01-05T22:32:37.310Z,77.68
2024-01-05T22:35:16.483Z,77.29
2024-01-05T22:37:55.491Z,76.77
2024-01-05T22:40:34.786Z,76.73
2024-01-05T22:43:14.075Z,76.69
2024-01-05T22:45:52.512Z,76.62
2024-01-05T22:48:35.843Z,76.97
2024-01-05T22:51:31.825Z,77.01
2024-01-05T22:54:12.821Z,77.24
2024-01-05T22:56:53.693Z,77.34
2024-01-05T22:59:33.463Z,77.15
2024-01-05T23:02:11.429Z,77.37
2024-01-05T23:04:49.562Z,77.96
2024-01-05T23:07:28.524Z,78.23
2024-01-05T23:10:07.560Z,78.53
2024-01-05T23:12:45.937Z,78.56
2024-01-05T23:15:26.133Z,79.12
2024-01-05T23:18:07.307Z,79.39
2024-01-05T23:20:46.359Z,79.58
2024-01-05T23:23:25.045Z,79.21
2024-01-05T23:26:03.609Z,79.65
2024-01-05T23:28:35.983Z,80.16
2024-01-05T23:31:17.820Z,80.16
2024-01-05T23:34:08.415Z,80.29
2024-01-05T23:36:52.792Z,81.04
2024-01-05T23:39:30.790Z,81.30
2024-01-05T23:42:09.935Z,80.95
2024-01-05T23:44:47.814Z,81.36
2024-01-05T23:47:25.680Z,81.41
2024-01-05T23:50:03.303Z,81.56
2024-01-05T23:52:41.235Z,81.45
2024-01-05T23:55:19.677Z,81.14
2024-01-05T23:57:57.791Z,82.04
